Monday, December 18, 2017, 9:40 AM MST
Back to Local

KPHP, Philip Airport

Location: Philip, SD, United States Lat: 44.05
Local Time: 9:40 AM MST (16:40 GMT) Lon: -101.6
Time Zone: US/Mountain Elev: 2207 ft

Show me the last for .
Show Decoded

2017-12-18 08:55 METAR KPHP 181555Z AUTO 24013KT 10SM CLR 03/M04 A2975 RMK AO2 SLP091 T00331039 =
2017-12-18 07:55 METAR KPHP 181455Z AUTO 27008KT 10SM CLR M02/M06 A2976 RMK AO2 SLP099 T10171061
                 58008 =
2017-12-18 06:55 METAR KPHP 181355Z AUTO 26009KT 10SM CLR M03/M07 A2978 RMK AO2 SLP103 T10281067
                 =
2017-12-18 05:55 METAR KPHP 181255Z AUTO 25009KT 10SM CLR M03/M06 A2979 RMK AO2 SLP106 T10281061
                 =
2017-12-18 04:55 METAR KPHP 181155Z AUTO 25011KT 10SM CLR M02/M06 A2979 RMK AO2 SLP106 T10221056
                 11017 21033 58016 =
2017-12-18 03:55 METAR KPHP 181055Z AUTO 27006KT 10SM CLR M02/M05 A2981 RMK AO2 SLP110 T10221050
                 =
2017-12-18 02:55 METAR KPHP 180955Z AUTO 30005KT 10SM CLR M02/M05 A2982 RMK AO2 SLP111 T10221050
                 =
2017-12-18 01:55 METAR KPHP 180855Z AUTO 29004KT 10SM CLR M03/M06 A2984 RMK AO2 SLP119 T10281056
                 55004 =
2017-12-18 00:55 METAR KPHP 180755Z AUTO 26009KT 10SM CLR M03/M05 A2983 RMK AO2 SLP116 T10281050
                 =
2017-12-17 23:55 METAR KPHP 180655Z AUTO 26007KT 10SM CLR M03/M05 A2983 RMK AO2 SLP119 T10331050
                 400561050 =
2017-12-17 22:55 METAR KPHP 180555Z AUTO 26008KT 10SM CLR M03/M04 A2985 RMK AO2 SLP125 T10281044
                 10000 21050 51006 =
2017-12-17 21:55 METAR KPHP 180455Z AUTO 26008KT 10SM BKN080 M03/M04 A2985 RMK AO2 SLP126
                 T10331044 =
2017-12-17 20:55 METAR KPHP 180355Z AUTO 28007KT 10SM FEW095 M05/M06 A2985 RMK AO2 SLP128
                 T10501056 =
2017-12-17 19:55 METAR KPHP 180255Z AUTO 28007KT 10SM CLR M03/M04 A2983 RMK AO2 SLP122 T10281039
                 56005 =
2017-12-17 18:55 METAR KPHP 180155Z AUTO 18003KT 10SM CLR M01/M03 A2984 RMK AO2 SLP122 T10111028
                 =
2017-12-17 17:55 METAR KPHP 180055Z AUTO 16004KT 10SM CLR M01/M03 A2983 RMK AO2 SLP120 T10111033
                 =
2017-12-17 16:55 METAR KPHP 172355Z AUTO 18004KT 10SM CLR 00/M03 A2985 RMK AO2 SLP124 T00001033
                 10056 20000 55006 =
2017-12-17 15:55 METAR KPHP 172255Z AUTO 18005KT 10SM CLR 03/M02 A2984 RMK AO2 SLP120 T00331022 =
2017-12-17 14:55 METAR KPHP 172155Z AUTO 20010KT 10SM CLR 06/M02 A2984 RMK AO2 SLP118 T00561017 =
2017-12-17 13:55 METAR KPHP 172055Z AUTO 20009KT 10SM OVC080 05/M01 A2987 RMK AO2 SLP127
                 T00501011 56041 =
2017-12-17 12:55 METAR KPHP 171955Z AUTO 19012KT 10SM OVC080 04/M01 A2990 RMK AO2 SLP139
                 T00441011 =
2017-12-17 11:55 METAR KPHP 171855Z AUTO 20009KT 10SM OVC085 04/M02 A2995 RMK AO2 SLP156
                 T00391017 =
2017-12-17 10:55 METAR KPHP 171755Z AUTO 15003KT 10SM OVC090 02/M02 A3000 RMK AO2 SLP174
                 T00221022 10028 21006 58016 =
2017-12-17 09:55 METAR KPHP 171655Z AUTO 00000KT 10SM FEW047 OVC095 01/M02 A3004 RMK AO2 SLP189
                 T00111017 =

Support USWX by starting your Amazon purchase here.